Accueil
METAR-TAF:

METAR-TAF

Aéroports :

Aéroport international de Shanghai-Pudong

Shanghai-Pudong, Chine

latitude: 31-07N, longitude: 121-46E, altitude: 4 m

Observation

Le bulletin a été fait il y a 15 minutes, à 22:30 UTC
Vent 4 kt de est/sud-est
Température 17°C
Humidité 94%
Pression 1018 hPa
Visibilité: 8000 m
Quelques nuages à une hauteur de 700 ft
Ciel couvert à une hauteur de 3300 ft

METAR: ZSPD 212230Z 11002MPS 8000 FEW007 OVC033 17/16 Q1018 NOSIG

Heure: 06:45 (22:45 UTC)

Prévision

Le bulletin a été fait il y a 7 heures et 24 minutes, à 15:21 UTC
Prévision valable du 21 à 18 UTC au 22 à 18 UTC
Vent 8 kt de est
Visibilité: 6000 m
Nuages fragmentés à une hauteur de 1300 ft
Ciel couvert à une hauteur de 4000 ft

TAF: ZSPD 211521Z 2118/2218 09004MPS 6000 BKN013 OVC040 TX20/2206Z TN17/2120Z

Observations et prévisions météorologiques de plus de 4000 aéroports (messages METAR et TAF).

Les stations disponibles sont représentées par des disques jaunes et rouges sur la carte.

Passer la souris dessus pour voir le nom de la station.

Cliquer dessus pour voir les observations et prévisions météorologiques.

Pour changer de carte: cliquez sur les boutons verts avec une croix noire pour zoomer, sur le bouton vert avec un tiret pour effectuer un zoom arrière, ou sur les flèches vertes pour les cartes adjacentes.


METAR-TAF: